Time;durP1;ratioP1;P1;durP2;ratioP2;P2;SDS_P1;SDS_P2;PMS_P1;PMS_P2;Temp;Humidity;BMP_temperature;BMP_pressure;BME280_temperature;BME280_humidity;BME280_pressure;Samples;Min_cycle;Max_cycle;Signal;HPM_P1;HPM_P2
2022/05/25 00:00:10;;;;;;;5.87;4.47;;;;;;;15.89;100.00;98363.25;4408442;32;20047;-75
2022/05/25 00:02:57;;;;;;;7.32;4.60;;;;;;;16.07;100.00;98351.50;4398146;32;20070;-74
2022/05/25 00:05:23;;;;;;;8.75;4.35;;;;;;;16.03;100.00;98360.53;4405926;32;20408;-75
2022/05/25 00:07:50;;;;;;;4.30;3.67;;;;;;;16.02;100.00;98358.91;4389410;32;20416;-76
2022/05/25 00:10:16;;;;;;;6.00;4.18;;;;;;;16.07;100.00;98350.69;4403130;32;20070;-75
2022/05/25 00:12:43;;;;;;;5.62;4.15;;;;;;;16.09;100.00;98353.91;4401944;32;20055;-75
2022/05/25 00:15:12;;;;;;;5.07;3.72;;;;;;;15.81;100.00;98332.16;4402575;32;20459;-75
2022/05/25 00:17:38;;;;;;;7.20;4.12;;;;;;;16.09;100.00;98324.03;4401738;32;20188;-74
2022/05/25 00:20:05;;;;;;;5.80;4.20;;;;;;;15.96;100.00;98323.72;4402570;32;20469;-74
2022/05/25 00:22:40;;;;;;;5.25;4.40;;;;;;;16.14;100.00;98356.50;4389407;32;20035;-75
2022/05/25 00:25:08;;;;;;;5.22;3.90;;;;;;;16.41;100.00;98349.44;4402465;32;20128;-75
2022/05/25 00:27:35;;;;;;;5.80;3.10;;;;;;;16.12;100.00;98361.44;4399640;32;20051;-74
2022/05/25 00:30:03;;;;;;;5.90;3.90;;;;;;;15.84;100.00;98345.13;4407598;32;20421;-75
2022/05/25 00:32:29;;;;;;;5.70;4.18;;;;;;;16.00;100.00;98340.22;4409958;32;20038;-75
2022/05/25 00:34:55;;;;;;;6.35;5.30;;;;;;;16.20;100.00;98371.59;4408676;32;20090;-75
2022/05/25 00:37:22;;;;;;;6.12;4.32;;;;;;;16.19;100.00;98352.88;4408237;32;20463;-75
2022/05/25 00:39:48;;;;;;;3.83;3.42;;;;;;;16.25;100.00;98359.81;4410537;32;20055;-74
2022/05/25 00:42:16;;;;;;;6.68;3.60;;;;;;;15.93;100.00;98323.53;4407270;32;20060;-75
2022/05/25 00:44:42;;;;;;;7.97;3.62;;;;;;;16.11;100.00;98357.09;4411960;32;20344;-76
2022/05/25 00:47:12;;;;;;;3.83;3.40;;;;;;;16.16;100.00;98359.72;4401243;32;20038;-73
2022/05/25 00:49:39;;;;;;;3.62;3.33;;;;;;;16.07;100.00;98367.78;4388630;32;20076;-75
2022/05/25 00:52:13;;;;;;;4.40;4.00;;;;;;;16.10;100.00;98366.38;4402343;32;20064;-75
2022/05/25 00:54:51;;;;;;;7.07;3.97;;;;;;;16.19;100.00;98353.69;4402344;32;20383;-74
2022/05/25 00:57:21;;;;;;;4.10;3.62;;;;;;;16.17;100.00;98373.00;4386731;32;20104;-74
2022/05/25 01:00:04;;;;;;;5.22;4.03;;;;;;;16.31;100.00;98369.47;4388719;32;20053;-75
2022/05/25 01:02:34;;;;;;;11.57;4.37;;;;;;;16.31;100.00;98364.84;4387232;32;20060;-74
2022/05/25 01:05:01;;;;;;;6.18;4.72;;;;;;;16.21;100.00;98362.34;4401986;32;20933;-75
2022/05/25 01:07:49;;;;;;;9.25;4.90;;;;;;;16.03;100.00;98376.81;4402165;32;20409;-75
2022/05/25 01:10:39;;;;;;;4.22;3.83;;;;;;;16.40;100.00;98375.81;4398413;32;20525;-74
2022/05/25 01:13:21;;;;;;;7.47;4.65;;;;;;;16.33;100.00;98378.91;4390340;32;20359;-75
2022/05/25 01:16:13;;;;;;;6.10;4.25;;;;;;;16.24;100.00;98348.16;4399858;32;20035;-73
2022/05/25 01:18:54;;;;;;;4.25;3.85;;;;;;;16.35;100.00;98367.75;4400386;32;20379;-74
2022/05/25 01:21:30;;;;;;;;;;;;;;;16.48;100.00;98377.00;4400332;32;20097;-73
2022/05/25 01:24:03;;;;;;;6.10;4.68;;;;;;;16.38;100.00;98386.16;4386632;32;19950;-74
2022/05/25 01:26:57;;;;;;;13.65;5.82;;;;;;;16.15;100.00;98353.50;4401915;32;20035;-74
2022/05/25 01:29:50;;;;;;;7.53;5.20;;;;;;;16.62;100.00;98379.69;4401877;32;20051;-75
2022/05/25 01:32:25;;;;;;;8.98;5.28;;;;;;;16.39;100.00;98392.41;4388105;32;20451;-75
2022/05/25 01:35:12;;;;;;;5.72;5.05;;;;;;;16.10;100.00;98355.53;4400652;32;20038;-75
2022/05/25 01:37:48;;;;;;;8.80;5.30;;;;;;;16.57;100.00;98388.75;4400981;32;20409;-75
2022/05/25 01:40:18;;;;;;;5.45;5.05;;;;;;;16.46;100.00;98376.50;4399634;32;20061;-73
2022/05/25 01:42:58;;;;;;;7.18;5.43;;;;;;;16.30;100.00;98403.19;4401595;32;20059;-74
2022/05/25 01:45:29;;;;;;;11.27;5.80;;;;;;;16.45;100.00;98407.47;4401937;32;20320;-75
2022/05/25 01:48:03;;;;;;;6.07;5.47;;;;;;;16.37;100.00;98408.19;4400453;32;20388;-74
2022/05/25 01:50:37;;;;;;;8.55;6.12;;;;;;;16.45;100.00;98415.63;4401843;32;20080;-75
2022/05/25 01:53:07;;;;;;;11.38;6.20;;;;;;;16.38;100.00;98415.25;4401318;32;20035;-74
2022/05/25 01:55:39;;;;;;;7.37;6.47;;;;;;;16.25;100.00;98416.88;4387894;32;20023;-74
2022/05/25 01:58:09;;;;;;;;;;;;;;;16.19;100.00;98427.00;4400174;32;20409;-74
2022/05/25 02:00:42;;;;;;;8.50;5.90;;;;;;;16.55;100.00;98420.88;4401339;32;19933;-75
2022/05/25 02:06:15;;;;;;;8.60;6.32;;;;;;;16.13;100.00;98393.72;4401357;32;20059;-74
2022/05/25 02:09:21;;;;;;;8.60;7.15;;;;;;;16.53;100.00;98414.94;4401607;32;20038;-74
2022/05/25 02:11:52;;;;;;;9.07;7.47;;;;;;;16.47;100.00;98419.66;4399837;32;20086;-74
2022/05/25 02:14:58;;;;;;;10.35;8.50;;;;;;;16.56;100.00;98417.06;4401382;32;20054;-75
2022/05/25 02:17:59;;;;;;;14.50;9.48;;;;;;;16.68;100.00;98420.03;4401352;32;20030;-75
2022/05/25 02:20:32;;;;;;;18.43;9.10;;;;;;;16.66;100.00;98422.25;4401006;32;20431;-74
2022/05/25 02:23:03;;;;;;;;;;;;;;;16.49;100.00;98401.13;4387939;32;20035;-75
2022/05/25 02:25:53;;;;;;;11.15;8.15;;;;;;;16.79;100.00;98420.63;4398910;32;19946;-75
2022/05/25 02:28:26;;;;;;;12.90;9.23;;;;;;;16.57;100.00;98424.06;4401014;32;20310;-75
2022/05/25 02:30:59;;;;;;;24.63;8.95;;;;;;;16.50;100.00;98401.97;4400678;32;20035;-75
2022/05/25 02:33:32;;;;;;;13.38;10.18;;;;;;;16.61;100.00;98425.09;4400113;32;20039;-75
2022/05/25 02:36:01;;;;;;;12.95;10.15;;;;;;;16.65;100.00;98422.56;4387540;32;20038;-75
2022/05/25 02:38:27;;;;;;;12.95;9.43;;;;;;;16.48;100.00;98387.84;4399706;32;20369;-75
2022/05/25 02:41:09;;;;;;;14.95;10.80;;;;;;;16.56;100.00;98417.06;4386454;32;20057;-74
2022/05/25 02:43:37;;;;;;;;;;;;;;;16.68;100.00;98408.37;4398915;32;20051;-75
2022/05/25 02:46:06;;;;;;;16.25;11.27;;;;;;;16.70;100.00;98415.13;4401217;32;20066;-75
2022/05/25 02:48:36;;;;;;;12.95;10.60;;;;;;;16.64;100.00;98419.06;4401311;32;20373;-74
2022/05/25 02:51:03;;;;;;;14.15;10.68;;;;;;;16.73;100.00;98421.03;4403311;32;20059;-75
2022/05/25 02:53:29;;;;;;;14.18;10.98;;;;;;;16.59;100.00;98410.97;4403747;32;20035;-75
2022/05/25 02:55:56;;;;;;;14.98;10.93;;;;;;;16.61;100.00;98411.50;4403819;32;20088;-75
2022/05/25 02:58:22;;;;;;;17.83;11.65;;;;;;;16.28;100.00;98376.31;4403790;32;20057;-75
2022/05/25 03:00:48;;;;;;;18.20;11.50;;;;;;;16.46;100.00;98411.81;4401779;32;20039;-74
2022/05/25 03:03:15;;;;;;;15.93;11.27;;;;;;;16.48;100.00;98431.31;4403376;32;20047;-74
2022/05/25 03:05:42;;;;;;;17.30;12.30;;;;;;;16.42;100.00;98427.09;4403918;32;20047;-75
2022/05/25 03:08:08;;;;;;;21.85;11.02;;;;;;;16.42;100.00;98437.97;4403807;32;20061;-75
2022/05/25 03:10:34;;;;;;;17.87;11.90;;;;;;;16.37;100.00;98429.94;4401864;32;20454;-75
2022/05/25 03:13:02;;;;;;;12.20;10.27;;;;;;;16.41;100.00;98431.75;4400191;32;20054;-74
2022/05/25 03:15:28;;;;;;;14.30;11.52;;;;;;;16.41;100.00;98436.38;4403313;32;20478;-75
2022/05/25 03:17:54;;;;;;;18.42;12.45;;;;;;;16.48;100.00;98437.59;4403628;32;20031;-75
2022/05/25 03:20:21;;;;;;;17.27;12.95;;;;;;;16.37;100.00;98435.38;4403497;32;20430;-74
2022/05/25 03:22:47;;;;;;;19.17;13.15;;;;;;;16.44;100.00;98446.66;4401268;32;20075;-74
2022/05/25 03:25:14;;;;;;;16.50;12.60;;;;;;;16.30;100.00;98447.44;4403163;32;20173;-74
2022/05/25 03:27:41;;;;;;;17.80;12.90;;;;;;;16.33;100.00;98452.25;4403503;32;20399;-75
2022/05/25 03:30:08;;;;;;;22.55;13.07;;;;;;;16.11;100.00;98428.50;4403838;32;20078;-74
2022/05/25 03:32:35;;;;;;;19.08;13.43;;;;;;;16.23;100.00;98430.75;4401487;32;20046;-74
2022/05/25 03:35:02;;;;;;;18.98;12.93;;;;;;;16.40;100.00;98467.38;4389564;32;20092;-74
2022/05/25 03:37:29;;;;;;;17.55;13.00;;;;;;;16.44;100.00;98462.94;4403458;32;20026;-73
2022/05/25 03:39:55;;;;;;;18.33;12.82;;;;;;;16.42;100.00;98462.44;4402867;32;20525;-73
2022/05/25 03:42:22;;;;;;;21.73;14.25;;;;;;;16.21;100.00;98435.69;4401647;32;20065;-73
2022/05/25 03:44:49;;;;;;;18.00;12.70;;;;;;;16.44;100.00;98458.31;4400952;32;20170;-73
2022/05/25 03:47:16;;;;;;;18.05;13.13;;;;;;;16.55;100.00;98461.63;4403096;32;20787;-74
2022/05/25 03:49:43;;;;;;;27.70;13.32;;;;;;;16.62;100.00;98466.66;4403055;32;20039;-74
2022/05/25 03:52:10;;;;;;;19.12;13.23;;;;;;;16.48;100.00;98451.19;4403302;32;20039;-75
2022/05/25 03:54:37;;;;;;;20.85;13.70;;;;;;;16.44;100.00;98441.22;4386470;32;20387;-73
2022/05/25 03:57:05;;;;;;;21.65;13.65;;;;;;;16.64;100.00;98476.13;4403186;32;20080;-75
2022/05/25 03:59:31;;;;;;;22.00;13.45;;;;;;;16.42;100.00;98454.28;4403207;32;20049;-75
2022/05/25 04:01:57;;;;;;;20.17;13.88;;;;;;;16.56;100.00;98479.56;4402594;32;20082;-75
2022/05/25 04:04:24;;;;;;;18.83;12.98;;;;;;;16.36;100.00;98450.06;4388367;32;20064;-74
2022/05/25 04:06:50;;;;;;;22.83;13.88;;;;;;;16.64;100.00;98475.31;4387775;32;20072;-73
2022/05/25 04:09:16;;;;;;;21.40;13.25;;;;;;;16.69;100.00;98469.78;4402874;32;20391;-74
2022/05/25 04:11:43;;;;;;;21.33;13.38;;;;;;;16.65;100.00;98475.00;4402873;32;20376;-74
2022/05/25 04:14:10;;;;;;;13.80;11.63;;;;;;;16.63;100.00;98471.00;4402780;32;20039;-75
2022/05/25 04:16:36;;;;;;;17.85;11.98;;;;;;;16.68;100.00;98458.09;4400344;32;20085;-74
2022/05/25 04:19:03;;;;;;;16.25;12.00;;;;;;;16.64;100.00;98478.84;4388300;32;20225;-76
2022/05/25 04:21:29;;;;;;;18.90;11.55;;;;;;;16.53;100.00;98439.41;4402379;32;20035;-76
2022/05/25 04:23:56;;;;;;;15.68;11.75;;;;;;;16.73;100.00;98475.41;4402422;32;20042;-76
2022/05/25 04:26:22;;;;;;;18.05;9.68;;;;;;;16.86;100.00;98477.31;4402681;32;20038;-78
2022/05/25 04:28:48;;;;;;;21.27;8.70;;;;;;;16.83;100.00;98464.31;4400696;32;20498;-77
2022/05/25 04:31:16;;;;;;;10.30;8.77;;;;;;;16.57;100.00;98478.44;4401708;32;20047;-80
2022/05/25 04:33:42;;;;;;;12.48;9.27;;;;;;;16.60;100.00;98472.41;4402258;32;20072;-79
2022/05/25 04:36:08;;;;;;;9.90;7.90;;;;;;;16.55;100.00;98464.34;4388018;32;20338;-78
2022/05/25 04:38:36;;;;;;;10.07;8.10;;;;;;;16.28;100.00;98463.25;4388734;32;20039;-78
2022/05/25 04:41:03;;;;;;;11.32;8.23;;;;;;;16.49;100.00;98460.13;4400223;32;20064;-76
2022/05/25 04:43:29;;;;;;;10.35;7.82;;;;;;;16.34;100.00;98448.44;4401656;32;20726;-78
2022/05/25 04:45:59;;;;;;;8.70;7.40;;;;;;;16.37;100.00;98474.22;4402079;32;20061;-79
2022/05/25 04:48:26;;;;;;;13.48;8.15;;;;;;;16.46;100.00;98477.03;4402174;32;20038;-78
2022/05/25 04:50:53;;;;;;;15.95;8.73;;;;;;;16.46;100.00;98477.03;4401577;32;20039;-78
2022/05/25 04:53:21;;;;;;;10.70;7.07;;;;;;;16.67;100.00;98478.25;4400033;32;20042;-76
2022/05/25 04:58:43;;;;;;;11.48;7.95;;;;;;;16.54;100.00;98473.59;4402432;32;20034;-79
2022/05/25 05:01:11;;;;;;;10.82;7.75;;;;;;;16.79;100.00;98479.63;4399577;32;20055;-79
2022/05/25 05:03:38;;;;;;;9.30;7.65;;;;;;;16.55;100.00;98460.84;4401753;32;20043;-79
2022/05/25 05:06:06;;;;;;;12.45;7.62;;;;;;;16.76;100.00;98486.47;4402113;32;20039;-79
2022/05/25 05:08:34;;;;;;;11.43;7.97;;;;;;;16.72;100.00;98490.94;4394187;32;20106;-78
2022/05/25 05:11:12;;;;;;;10.23;8.43;;;;;;;16.45;100.00;98464.53;4385295;32;20059;-76
2022/05/25 05:13:40;;;;;;;8.05;7.20;;;;;;;16.86;100.00;98488.19;4387766;32;20076;-78
2022/05/25 05:16:09;;;;;;;13.00;8.43;;;;;;;16.96;100.00;98474.41;4401883;32;20074;-77
2022/05/25 05:18:36;;;;;;;13.27;7.40;;;;;;;16.70;100.00;98450.47;4401075;32;20076;-76
2022/05/25 05:21:04;;;;;;;11.73;8.10;;;;;;;16.59;100.00;98449.03;4394377;32;20455;-75
2022/05/25 05:23:30;;;;;;;15.52;7.60;;;;;;;16.76;100.00;98480.25;4386729;32;20400;-80
2022/05/25 05:25:56;;;;;;;15.35;8.38;;;;;;;16.82;100.00;98451.84;4376619;32;20031;-78
2022/05/25 05:28:29;;;;;;;10.68;7.15;;;;;;;16.71;100.00;98456.69;4387754;32;20466;-78
2022/05/25 05:30:57;;;;;;;11.55;6.80;;;;;;;16.78;100.00;98483.44;4393737;32;20035;-75
2022/05/25 05:33:26;;;;;;;11.38;7.82;;;;;;;16.95;100.00;98482.88;4387143;32;20062;-78
2022/05/25 05:36:06;;;;;;;8.52;7.22;;;;;;;16.88;100.00;98488.69;4392228;32;20039;-80
2022/05/25 05:38:36;;;;;;;12.85;7.55;;;;;;;16.81;100.00;98480.12;4396840;32;20190;-79
2022/05/25 05:41:03;;;;;;;17.87;7.78;;;;;;;16.82;100.00;98465.44;4384915;32;20048;-79
2022/05/25 05:43:29;;;;;;;11.32;7.25;;;;;;;16.52;100.00;98454.09;4399575;32;20101;-77
2022/05/25 05:45:56;;;;;;;19.83;6.90;;;;;;;16.66;100.00;98482.06;4400715;32;20046;-78
2022/05/25 05:48:30;;;;;;;9.02;6.82;;;;;;;16.55;100.00;98488.81;4400839;32;20503;-80
2022/05/25 05:50:56;;;;;;;9.23;7.15;;;;;;;16.93;100.00;98496.78;4391856;32;20047;-77
2022/05/25 05:53:26;;;;;;;10.93;7.20;;;;;;;16.65;100.00;98455.97;4386015;32;20058;-79
2022/05/25 05:55:53;;;;;;;12.73;6.40;;;;;;;17.11;100.00;98507.81;4400250;32;20043;-80
2022/05/25 05:58:20;;;;;;;8.10;5.68;;;;;;;16.68;100.00;98498.06;4387186;32;20032;-80
2022/05/25 06:00:46;;;;;;;9.88;5.60;;;;;;;16.77;100.00;98509.03;4388424;32;20050;-75
2022/05/25 06:03:14;;;;;;;5.78;5.28;;;;;;;16.67;100.00;98513.56;4397936;32;20129;-77
2022/05/25 06:05:47;;;;;;;9.30;5.80;;;;;;;16.77;100.00;98509.03;4392126;32;20077;-79
2022/05/25 06:08:18;;;;;;;10.50;5.37;;;;;;;16.74;100.00;98506.91;4383799;32;20077;-77
2022/05/25 06:10:45;;;;;;;9.40;5.70;;;;;;;16.60;100.00;98494.13;4393214;32;20051;-78
2022/05/25 06:13:12;;;;;;;9.70;5.82;;;;;;;16.89;100.00;98512.06;4397637;32;20058;-76
2022/05/25 06:21:17;;;;;;;6.37;5.00;;;;;;;16.86;100.00;98516.22;4399665;32;20043;-78
2022/05/25 06:23:44;;;;;;;7.50;5.12;;;;;;;16.77;100.00;98509.03;4401736;32;20060;-78
2022/05/25 06:26:10;;;;;;;8.23;5.47;;;;;;;16.58;100.00;98490.91;4390542;32;20180;-79
2022/05/25 06:28:36;;;;;;;5.62;4.95;;;;;;;16.86;100.00;98518.12;4402575;32;20039;-77
2022/05/25 06:31:03;;;;;;;5.95;5.00;;;;;;;16.93;100.00;98518.53;4403811;32;20377;-80
2022/05/25 06:33:37;;;;;;;8.80;5.57;;;;;;;16.84;100.00;98525.75;4403985;32;20536;-81
2022/05/25 06:36:19;;;;;;;8.57;5.05;;;;;;;16.74;100.00;98515.06;4404222;32;20424;-77
2022/05/25 06:38:46;;;;;;;6.53;5.07;;;;;;;16.76;100.00;98529.97;4390152;32;20046;-81
2022/05/25 06:41:14;;;;;;;8.85;5.50;;;;;;;16.49;100.00;98514.47;4400108;32;20047;-79
2022/05/25 06:43:41;;;;;;;9.00;5.35;;;;;;;16.55;100.00;98515.19;4389020;32;20039;-76
2022/05/25 06:46:09;;;;;;;6.80;5.93;;;;;;;16.46;100.00;98509.63;4388959;32;20047;-80
2022/05/25 06:48:35;;;;;;;6.40;5.75;;;;;;;16.66;100.00;98525.53;4385842;32;20051;-79
2022/05/25 06:51:23;;;;;;;8.20;5.87;;;;;;;16.56;100.00;98504.03;4394068;32;20039;-80
2022/05/25 06:53:51;;;;;;;7.72;5.32;;;;;;;16.86;100.00;98534.44;4388358;32;20051;-80
2022/05/25 06:56:18;;;;;;;11.12;6.87;;;;;;;16.84;100.00;98536.63;4387174;32;20396;-76
2022/05/25 06:58:45;;;;;;;6.68;5.97;;;;;;;16.92;100.00;98552.25;4388713;32;20047;-79
2022/05/25 07:01:12;;;;;;;7.82;6.05;;;;;;;16.74;100.00;98520.50;4387499;32;20061;-80
2022/05/25 07:03:38;;;;;;;11.27;6.10;;;;;;;16.89;100.00;98544.69;4388171;32;20083;-76
2022/05/25 07:06:06;;;;;;;6.37;5.50;;;;;;;16.90;100.00;98554.47;4399316;32;20031;-75
2022/05/25 07:08:33;;;;;;;7.68;4.82;;;;;;;16.98;100.00;98561.91;4401350;32;20383;-77
2022/05/25 07:11:00;;;;;;;6.05;4.10;;;;;;;16.76;100.00;98568.03;4383893;32;20407;-77
2022/05/25 07:13:29;;;;;;;5.72;4.80;;;;;;;16.62;100.00;98578.88;4388008;32;20395;-76
2022/05/25 07:16:05;;;;;;;6.72;4.57;;;;;;;16.54;100.00;98552.41;4397476;32;20059;-76
2022/05/25 07:18:32;;;;;;;8.38;4.82;;;;;;;16.69;100.00;98586.66;4376906;32;20428;-76
2022/05/25 07:21:10;;;;;;;5.18;4.47;;;;;;;16.70;100.00;98597.25;4401163;32;20116;-76
2022/05/25 07:23:38;;;;;;;10.85;6.35;;;;;;;16.54;100.00;98557.84;4379595;32;20051;-77
2022/05/25 07:26:06;;;;;;;13.07;5.15;;;;;;;16.75;100.00;98598.22;4395312;32;20067;-75
2022/05/25 07:28:34;;;;;;;10.32;5.25;;;;;;;16.48;100.00;98567.19;4402559;32;20064;-75
2022/05/25 07:31:07;;;;;;;7.97;5.62;;;;;;;16.65;100.00;98602.75;4410060;32;20046;-76
2022/05/25 07:33:36;;;;;;;5.28;4.87;;;;;;;16.81;100.00;98607.91;4409110;32;20058;-76
2022/05/25 07:36:04;;;;;;;8.48;5.28;;;;;;;16.63;100.00;98601.44;4400547;32;20088;-76
2022/05/25 07:38:30;;;;;;;9.23;5.07;;;;;;;16.68;100.00;98610.31;4401398;32;20058;-76
2022/05/25 07:40:59;;;;;;;5.40;4.35;;;;;;;16.39;100.00;98590.75;4393237;32;20036;-76
2022/05/25 07:43:30;;;;;;;7.95;5.20;;;;;;;16.42;100.00;98595.56;4380777;32;20068;-76
2022/05/25 07:45:57;;;;;;;5.93;4.50;;;;;;;16.46;100.00;98612.88;4392270;32;20023;-75
2022/05/25 07:48:23;;;;;;;6.37;4.97;;;;;;;16.37;100.00;98625.53;4401137;32;20051;-76
2022/05/25 07:50:50;;;;;;;8.13;4.65;;;;;;;16.18;100.00;98612.81;4402476;32;20065;-77
2022/05/25 07:56:03;;;;;;;8.93;4.53;;;;;;;16.00;100.00;98600.06;4401079;32;20475;-75
2022/05/25 07:58:31;;;;;;;5.60;4.25;;;;;;;16.26;100.00;98636.59;4401055;32;20945;-77
2022/05/25 08:01:09;;;;;;;7.20;5.12;;;;;;;16.16;100.00;98642.16;4402215;32;20050;-76
2022/05/25 08:06:23;;;;;;;7.32;4.15;;;;;;;15.82;100.00;98664.94;4403130;32;20047;-75
2022/05/25 08:08:51;;;;;;;7.22;5.20;;;;;;;15.77;100.00;98646.03;4401571;32;20372;-76
2022/05/25 08:11:21;;;;;;;4.72;4.20;;;;;;;15.79;100.00;98649.25;4402302;32;20057;-75
2022/05/25 08:13:52;;;;;;;5.80;4.25;;;;;;;15.74;100.00;98654.72;4514643;27;20315;-73
2022/05/25 08:16:19;;;;;;;30.70;6.60;;;;;;;15.89;100.00;98659.97;4401353;32;20046;-73
2022/05/25 08:18:46;;;;;;;11.95;6.82;;;;;;;15.78;100.00;98674.78;4400242;32;20059;-74
2022/05/25 08:21:12;;;;;;;12.60;5.60;;;;;;;15.76;100.00;98666.09;4404670;32;20383;-74
2022/05/25 08:23:39;;;;;;;6.37;5.10;;;;;;;15.87;100.00;98645.06;4402498;32;20980;-73
2022/05/25 08:26:05;;;;;;;7.28;5.53;;;;;;;15.91;100.00;98667.81;4401275;32;20047;-73
2022/05/25 08:28:31;;;;;;;5.50;4.35;;;;;;;15.74;100.00;98660.16;4384367;32;20022;-74
2022/05/25 08:30:59;;;;;;;8.73;5.68;;;;;;;15.83;100.00;98663.03;4398882;32;20069;-74
2022/05/25 08:33:26;;;;;;;5.45;4.57;;;;;;;15.61;100.00;98643.47;4382624;32;20379;-73
2022/05/25 08:35:52;;;;;;;10.77;5.47;;;;;;;15.74;100.00;98676.44;4402017;32;20403;-74
2022/05/25 08:38:22;;;;;;;22.52;14.70;;;;;;;15.48;100.00;98644.22;4402555;32;20042;-74
2022/05/25 08:40:51;;;;;;;7.15;4.97;;;;;;;15.65;100.00;98676.25;4401280;32;20035;-74
2022/05/25 08:43:23;;;;;;;9.20;5.82;;;;;;;15.67;100.00;98681.41;4399086;32;20306;-74
2022/05/25 08:45:57;;;;;;;7.50;5.82;;;;;;;15.57;100.00;98653.31;4413706;32;20455;-68
2022/05/25 08:48:25;;;;;;;8.02;4.90;;;;;;;15.68;100.00;98691.16;4394721;32;20042;-69
2022/05/25 08:50:59;;;;;;;7.75;5.90;;;;;;;15.59;100.00;98705.37;4386571;32;20065;-69
2022/05/25 08:53:25;;;;;;;;;;;;;;;15.67;100.00;98686.81;4385046;32;20050;-70
2022/05/25 08:56:01;;;;;;;17.92;5.50;;;;;;;15.78;100.00;98691.06;4385823;32;19948;-69
2022/05/25 08:58:38;;;;;;;8.48;4.85;;;;;;;15.60;100.00;98679.88;4384870;32;20114;-68
2022/05/25 09:01:06;;;;;;;9.00;5.05;;;;;;;15.71;100.00;98706.88;4382154;32;20433;-69
2022/05/25 09:03:52;;;;;;;11.60;5.28;;;;;;;15.61;100.00;98719.47;4386136;32;20097;-69
2022/05/25 09:06:47;;;;;;;8.90;4.75;;;;;;;15.72;100.00;98719.34;4386475;32;20396;-68
2022/05/25 09:09:39;;;;;;;10.98;5.20;;;;;;;15.35;100.00;98704.56;4386104;32;20043;-68
2022/05/25 09:12:06;;;;;;;8.77;5.45;;;;;;;15.39;100.00;98740.91;4380700;32;20046;-68
2022/05/25 09:14:41;;;;;;;6.95;3.83;;;;;;;15.04;100.00;98738.25;4385707;32;20059;-68
2022/05/25 09:17:16;;;;;;;11.52;4.90;;;;;;;15.09;100.00;98731.97;4385304;32;20065;-69
2022/05/25 09:19:45;;;;;;;9.45;4.37;;;;;;;14.80;100.00;98666.94;4392509;32;20038;-70
2022/05/25 09:22:24;;;;;;;4.95;2.75;;;;;;;14.95;100.00;98741.88;4400211;32;20035;-70
2022/05/25 09:24:55;;;;;;;9.68;3.37;;;;;;;14.52;100.00;98713.50;4393181;32;20394;-69
2022/05/25 09:27:31;;;;;;;8.77;3.50;;;;;;;14.09;100.00;98731.41;4385776;32;20379;-69
2022/05/25 09:30:01;;;;;;;7.57;3.22;;;;;;;14.07;100.00;98764.19;4384280;32;20039;-69
2022/05/25 09:32:40;;;;;;;4.93;3.30;;;;;;;14.11;100.00;98769.84;4377188;32;20075;-69
2022/05/25 09:35:14;;;;;;;10.10;3.97;;;;;;;13.65;100.00;98751.91;4384184;32;20043;-70
2022/05/25 09:37:57;;;;;;;17.17;4.47;;;;;;;13.68;100.00;98759.47;4386208;32;20059;-69
2022/05/25 09:40:49;;;;;;;13.93;4.07;;;;;;;13.78;100.00;98778.34;4385144;32;20043;-69
2022/05/25 09:43:24;;;;;;;12.00;4.47;;;;;;;13.74;100.00;98782.72;4371879;32;20048;-69
2022/05/25 09:45:55;;;;;;;3.00;2.70;;;;;;;13.81;100.00;98777.00;4384812;32;20047;-69
2022/05/25 09:48:24;;;;;;;10.27;3.62;;;;;;;13.66;100.00;98786.00;4384770;32;20363;-70
2022/05/25 09:50:54;;;;;;;6.40;3.92;;;;;;;13.45;100.00;98742.00;4384179;32;20065;-70
2022/05/25 09:53:30;;;;;;;4.80;3.42;;;;;;;13.59;100.00;98785.47;4386672;32;20504;-69
2022/05/25 09:56:09;;;;;;;14.65;2.17;;;;;;;13.42;100.00;98770.38;4376314;32;20065;-70
2022/05/25 09:58:45;;;;;;;4.75;2.17;;;;;;;13.08;100.00;98719.59;4382091;32;20352;-70
2022/05/25 10:01:27;;;;;;;2.55;2.22;;;;;;;13.12;100.00;98727.16;4385785;32;20064;-70
2022/05/25 10:03:54;;;;;;;;;;;;;;;13.41;100.00;98768.75;4385103;32;20055;-71
2022/05/25 10:06:29;;;;;;;8.55;2.15;;;;;;;13.03;100.00;98700.69;4384703;32;19950;-69
2022/05/25 10:09:15;;;;;;;2.00;1.80;;;;;;;13.57;100.00;98766.00;4387168;32;20329;-69
2022/05/25 10:11:48;;;;;;;2.97;1.87;;;;;;;13.61;100.00;98769.78;4384785;32;20034;-69
2022/05/25 10:14:26;;;;;;;5.53;3.10;;;;;;;13.51;100.00;98764.41;4384078;32;20043;-69
2022/05/25 10:16:55;;;;;;;2.60;1.80;;;;;;;13.66;100.00;98758.94;4384168;32;20060;-69
2022/05/25 10:19:23;;;;;;;4.30;1.70;;;;;;;13.68;100.00;98755.97;4384283;32;20043;-72
2022/05/25 10:21:53;;;;;;;6.45;2.67;;;;;;;13.78;100.00;98767.53;4389564;32;20971;-71
2022/05/25 10:24:25;;;;;;;2.45;1.87;;;;;;;13.90;100.00;98774.56;4372423;32;20053;-69
2022/05/25 10:26:56;;;;;;;2.55;1.90;;;;;;;13.98;100.00;98774.75;4385531;32;20367;-70
2022/05/25 10:36:45;;;;;;;2.15;1.95;;;;;;;13.95;100.00;98764.50;4384079;32;20349;-71
2022/05/25 10:38:27;;;;;;;2.53;2.33;;;;;;;14.08;100.00;98776.59;4400880;32;19946;-71
2022/05/25 10:41:37;;;;;;;2.30;2.10;;;;;;;14.16;100.00;98778.72;4385673;32;20068;-71
2022/05/25 10:44:03;;;;;;;2.50;2.30;;;;;;;14.20;100.00;98768.16;4399709;32;20068;-70
2022/05/25 10:46:31;;;;;;;2.08;1.85;;;;;;;14.27;100.00;98741.56;4400209;32;20353;-71
2022/05/25 10:49:07;;;;;;;9.57;2.78;;;;;;;14.08;100.00;98729.78;4396121;32;20096;-71
2022/05/25 10:51:42;;;;;;;6.03;2.17;;;;;;;14.22;100.00;98757.84;4387230;32;20049;-71
2022/05/25 10:54:44;;;;;;;4.68;2.12;;;;;;;14.00;100.00;98714.94;4386819;32;20043;-71
2022/05/25 10:57:48;;;;;;;8.93;5.18;;;;;;;14.29;100.00;98760.25;4395681;32;20042;-71
2022/05/25 11:00:26;;;;;;;4.22;2.87;;;;;;;14.45;100.00;98761.75;4381830;32;20038;-72
2022/05/25 11:03:14;;;;;;;5.15;2.80;;;;;;;14.28;100.00;98731.53;4400199;32;20031;-71
2022/05/25 11:05:52;;;;;;;3.37;2.25;;;;;;;14.54;100.00;98757.34;4399327;32;20714;-72
2022/05/25 11:08:37;;;;;;;4.50;2.83;;;;;;;14.52;100.00;98747.91;4386818;32;20460;-72
2022/05/25 11:11:10;;;;;;;2.92;2.40;;;;;;;14.12;100.00;98712.72;4395990;32;20088;-71
2022/05/25 11:13:42;;;;;;;;;;;;;;;14.41;100.00;98735.50;4387353;32;20336;-71
2022/05/25 11:16:27;;;;;;;6.47;2.90;;;;;;;14.31;100.00;98736.37;4387213;32;20019;-71
2022/05/25 11:19:12;;;;;;;3.17;2.08;;;;;;;14.01;100.00;98694.91;4388040;32;20405;-71
2022/05/25 11:22:19;;;;;;;3.33;3.03;;;;;;;14.16;100.00;98719.16;4387533;32;20226;-70
2022/05/25 11:25:06;;;;;;;13.57;4.82;;;;;;;14.32;100.00;98711.75;4370436;32;20053;-70
2022/05/25 11:27:50;;;;;;;5.07;2.90;;;;;;;14.16;100.00;98678.53;4386165;32;20031;-70
2022/05/25 11:30:35;;;;;;;5.10;3.30;;;;;;;14.47;100.00;98707.28;4380682;32;20195;-70
2022/05/25 11:33:02;;;;;;;5.65;3.67;;;;;;;14.34;100.00;98670.84;4410635;32;20046;-70
2022/05/25 11:35:28;;;;;;;4.00;3.70;;;;;;;14.34;100.00;98708.75;4402885;32;20026;-71
2022/05/25 11:38:09;;;;;;;8.40;3.75;;;;;;;14.10;100.00;98670.75;4414734;32;20128;-70
2022/05/25 11:40:42;;;;;;;7.07;3.42;;;;;;;14.52;100.00;98688.31;4407883;32;20038;-70
2022/05/25 11:43:20;;;;;;;3.90;2.92;;;;;;;14.42;100.00;98683.75;4417475;32;20026;-70
2022/05/25 11:46:08;;;;;;;5.62;2.90;;;;;;;14.33;100.00;98690.91;4405700;32;20108;-70
2022/05/25 11:49:02;;;;;;;3.90;3.20;;;;;;;14.50;100.00;98685.06;4395183;32;20054;-70
2022/05/25 11:51:49;;;;;;;2.53;2.33;;;;;;;14.65;100.00;98695.00;4387159;32;20086;-70
2022/05/25 11:54:48;;;;;;;5.35;3.35;;;;;;;14.42;100.00;98683.75;4386847;32;20409;-70
2022/05/25 11:57:43;;;;;;;4.65;3.05;;;;;;;14.43;100.00;98679.97;4384157;32;20335;-71
2022/05/25 12:00:26;;;;;;;3.92;2.05;;;;;;;14.52;100.00;98670.16;4372342;32;20154;-71
2022/05/25 12:03:30;;;;;;;7.35;2.45;;;;;;;14.22;100.00;98667.69;4385748;32;20061;-70
2022/05/25 12:06:15;;;;;;;3.67;2.83;;;;;;;14.55;100.00;98676.91;4386790;32;20039;-70
2022/05/25 12:08:47;;;;;;;7.37;2.40;;;;;;;14.59;100.00;98671.72;4386781;32;20055;-70